createdAt,value
2018-07-19T08:58:26.998Z,3.97
2018-07-19T09:00:56.550Z,4.30
2018-07-19T09:03:25.310Z,4.33
2018-07-19T09:05:53.898Z,3.97
2018-07-19T09:08:22.658Z,4.10
2018-07-19T09:10:51.369Z,4.00
2018-07-19T09:13:19.942Z,3.23
2018-07-19T09:15:48.690Z,3.70
2018-07-19T09:18:17.322Z,3.50
2018-07-19T09:20:45.947Z,3.77
2018-07-19T09:23:14.569Z,3.13
2018-07-19T09:25:43.101Z,3.43
2018-07-19T09:28:11.691Z,3.23
2018-07-19T09:30:40.226Z,3.43
2018-07-19T09:33:08.832Z,3.50
2018-07-19T09:35:37.559Z,3.60
2018-07-19T09:38:06.401Z,3.30
2018-07-19T09:40:35.070Z,3.20
2018-07-19T09:43:03.661Z,3.40
2018-07-19T09:45:32.238Z,3.20
2018-07-19T09:48:00.830Z,4.10
2018-07-19T09:50:29.382Z,3.37
2018-07-19T09:52:57.931Z,3.43
2018-07-19T09:55:26.463Z,3.73
2018-07-19T09:57:55.080Z,3.20
2018-07-19T10:00:28.974Z,3.43
2018-07-19T10:02:57.518Z,3.60
2018-07-19T10:05:26.085Z,3.17
2018-07-19T10:07:54.649Z,3.47
2018-07-19T10:10:23.226Z,3.10
2018-07-19T10:12:52.019Z,3.00
2018-07-19T10:15:20.554Z,2.63
2018-07-19T10:17:49.102Z,3.00
2018-07-19T10:20:17.676Z,2.67
2018-07-19T10:22:46.213Z,2.60
2018-07-19T10:25:14.759Z,2.50
2018-07-19T10:27:43.459Z,2.80
2018-07-19T10:30:12.022Z,2.90
2018-07-19T10:32:41.034Z,2.87
2018-07-19T10:35:09.530Z,3.03
2018-07-19T10:37:38.396Z,2.80
2018-07-19T10:40:07.194Z,3.20
2018-07-19T10:42:35.762Z,2.90
2018-07-19T10:45:04.613Z,3.53
2018-07-19T10:47:33.155Z,2.90
2018-07-19T10:50:01.698Z,2.63
2018-07-19T10:52:30.274Z,2.87
2018-07-19T10:54:58.878Z,2.77
2018-07-19T10:57:27.609Z,2.70
2018-07-19T10:59:56.083Z,2.67
2018-07-19T11:02:24.645Z,3.30
2018-07-19T11:04:53.231Z,2.93
2018-07-19T11:07:21.782Z,2.90
2018-07-19T11:09:50.322Z,3.40
2018-07-19T11:12:18.838Z,3.20
2018-07-19T11:14:47.383Z,2.83
2018-07-19T11:17:16.007Z,3.40
2018-07-19T11:19:44.535Z,2.63
2018-07-19T11:22:13.109Z,2.77
2018-07-19T11:24:41.671Z,2.83
2018-07-19T11:27:10.187Z,3.40
2018-07-19T11:29:38.772Z,3.10
2018-07-19T11:32:07.324Z,3.00
2018-07-19T11:34:35.745Z,2.90
2018-07-19T11:37:04.298Z,3.90
2018-07-19T11:39:33.042Z,2.80
2018-07-19T11:42:01.934Z,3.30
2018-07-19T11:44:30.533Z,3.37
2018-07-19T11:46:59.070Z,2.80
2018-07-19T11:49:27.706Z,2.77
2018-07-19T11:51:56.213Z,3.40
2018-07-19T11:54:24.800Z,2.77
2018-07-19T11:56:53.671Z,3.00
2018-07-19T11:59:22.447Z,2.67
2018-07-19T12:01:51.019Z,3.23
2018-07-19T12:04:19.928Z,3.80
2018-07-19T12:06:48.534Z,3.00
2018-07-19T12:09:17.037Z,3.57
2018-07-19T12:11:45.682Z,2.97
2018-07-19T12:14:14.334Z,3.30
2018-07-19T12:16:42.958Z,3.03
2018-07-19T12:19:11.573Z,2.87
2018-07-19T12:21:40.110Z,3.00
2018-07-19T12:24:08.615Z,3.37
2018-07-19T12:26:37.221Z,2.87
2018-07-19T12:29:05.797Z,3.30
2018-07-19T12:31:34.318Z,2.90
2018-07-19T12:34:02.886Z,3.30
2018-07-19T12:36:31.488Z,2.90
2018-07-19T12:39:00.008Z,2.97
2018-07-19T12:41:28.956Z,3.33
2018-07-19T12:43:57.981Z,3.20
2018-07-19T12:46:26.534Z,3.00
2018-07-19T12:48:54.869Z,4.00
2018-07-19T12:51:23.579Z,3.33
2018-07-19T12:53:51.994Z,3.90
2018-07-19T12:56:20.670Z,3.37
2018-07-19T12:58:49.357Z,2.50
2018-07-19T13:01:18.082Z,2.97
2018-07-19T13:03:46.626Z,3.07
2018-07-19T13:06:15.170Z,3.43
2018-07-19T13:08:43.706Z,3.10
2018-07-19T13:11:12.306Z,3.00
2018-07-19T13:13:42.070Z,3.83
2018-07-19T13:16:11.377Z,2.97
2018-07-19T13:18:40.055Z,3.43
2018-07-19T13:21:08.620Z,3.50
2018-07-19T13:23:37.324Z,3.23
2018-07-19T13:26:06.062Z,3.20
2018-07-19T13:28:34.646Z,3.20
2018-07-19T13:31:03.522Z,3.43
2018-07-19T13:33:32.339Z,2.80
2018-07-19T13:36:01.255Z,3.40
2018-07-19T13:38:29.906Z,2.80
2018-07-19T13:40:59.044Z,2.93
2018-07-19T13:43:27.703Z,3.40
2018-07-19T13:45:56.271Z,3.40
2018-07-19T13:48:24.837Z,3.13
2018-07-19T13:50:53.669Z,2.70
2018-07-19T13:53:35.230Z,2.80
2018-07-19T13:56:04.892Z,2.83
2018-07-19T13:58:34.203Z,2.93
2018-07-19T14:01:02.950Z,3.53
2018-07-19T14:03:31.819Z,3.13
2018-07-19T14:06:01.057Z,3.17
2018-07-19T14:08:29.766Z,2.83
2018-07-19T14:10:58.291Z,3.30
2018-07-19T14:13:27.130Z,3.23
2018-07-19T14:15:55.749Z,2.97
2018-07-19T14:18:24.290Z,3.10
2018-07-19T14:20:52.998Z,3.97
2018-07-19T14:23:21.516Z,2.93
2018-07-19T14:25:50.129Z,2.90
2018-07-19T14:28:18.679Z,3.23
2018-07-19T14:30:47.694Z,3.20
2018-07-19T14:33:16.202Z,3.10
2018-07-19T14:35:44.722Z,3.10
2018-07-19T14:38:13.259Z,2.87
2018-07-19T14:40:41.764Z,3.53
2018-07-19T14:43:10.385Z,3.73
2018-07-19T14:45:39.002Z,3.20
2018-07-19T14:48:07.564Z,2.50
2018-07-19T14:50:36.082Z,3.00
2018-07-19T14:53:05.152Z,3.07
2018-07-19T14:55:33.782Z,2.90
2018-07-19T14:58:02.412Z,2.60
2018-07-19T15:00:30.962Z,2.70
2018-07-19T15:02:59.521Z,2.87
2018-07-19T15:05:28.014Z,3.00
2018-07-19T15:07:56.783Z,2.90
2018-07-19T15:10:25.500Z,3.20
2018-07-19T15:12:54.199Z,3.10
2018-07-19T15:15:22.751Z,3.10
2018-07-19T15:17:51.339Z,2.50
2018-07-19T15:20:20.235Z,3.00
2018-07-19T15:22:48.782Z,3.13
2018-07-19T15:25:17.353Z,3.33
2018-07-19T15:27:45.934Z,3.03
2018-07-19T15:30:14.512Z,2.77
2018-07-19T15:32:43.224Z,2.80
2018-07-19T15:35:11.781Z,3.20
2018-07-19T15:37:40.466Z,2.80
2018-07-19T15:40:09.000Z,3.37
2018-07-19T15:42:37.525Z,3.00
2018-07-19T15:45:06.997Z,2.73
2018-07-19T15:47:35.842Z,2.77
2018-07-19T15:50:04.659Z,3.27
2018-07-19T15:52:33.248Z,3.40
2018-07-19T15:55:01.943Z,3.17
2018-07-19T15:57:30.527Z,2.90
2018-07-19T15:59:59.100Z,2.83
2018-07-19T16:02:27.852Z,2.77
2018-07-19T16:04:56.405Z,3.13
2018-07-19T16:07:25.095Z,3.20
2018-07-19T16:09:53.666Z,2.57
2018-07-19T16:12:22.267Z,3.13
2018-07-19T16:14:50.837Z,3.10
2018-07-19T16:17:19.345Z,3.00
2018-07-19T16:19:48.066Z,3.10
2018-07-19T16:22:16.609Z,3.00
2018-07-19T16:24:45.559Z,3.10
2018-07-19T16:27:14.173Z,3.00
2018-07-19T16:29:42.886Z,3.13
2018-07-19T16:32:11.810Z,2.80
2018-07-19T16:34:40.499Z,2.80
2018-07-19T16:37:09.203Z,3.20
2018-07-19T16:39:37.882Z,3.40
2018-07-19T16:42:06.445Z,3.07
2018-07-19T16:44:34.992Z,2.80
2018-07-19T16:47:03.614Z,2.70
2018-07-19T16:49:32.185Z,2.73
2018-07-19T16:52:00.892Z,3.00
2018-07-19T16:54:29.482Z,3.50
2018-07-19T16:56:58.250Z,3.40
2018-07-19T16:59:26.802Z,2.60
2018-07-19T17:01:55.402Z,2.87
2018-07-19T17:04:24.168Z,2.97
2018-07-19T17:06:52.383Z,2.80
2018-07-19T17:09:21.057Z,2.43
2018-07-19T17:11:49.647Z,3.07
2018-07-19T17:14:18.165Z,3.03
2018-07-19T17:16:46.727Z,2.97
2018-07-19T17:19:15.389Z,3.43
2018-07-19T17:21:44.363Z,2.60
2018-07-19T17:24:13.063Z,2.67
2018-07-19T17:26:41.767Z,2.87
2018-07-19T17:29:10.685Z,3.17
2018-07-19T17:31:39.002Z,2.70
2018-07-19T17:34:07.834Z,3.13
2018-07-19T17:36:36.383Z,2.73
2018-07-19T17:39:10.579Z,2.80
2018-07-19T17:41:39.271Z,3.00
2018-07-19T17:44:07.968Z,3.20
2018-07-19T17:46:36.570Z,3.03
2018-07-19T17:49:05.395Z,3.17
2018-07-19T17:51:34.153Z,3.00
2018-07-19T17:54:02.703Z,3.33
2018-07-19T17:56:31.518Z,2.80
2018-07-19T17:59:00.564Z,3.03
2018-07-19T18:01:29.261Z,3.20
2018-07-19T18:03:57.790Z,3.13
2018-07-19T18:06:26.503Z,2.90
2018-07-19T18:08:55.398Z,3.20
2018-07-19T18:11:24.170Z,2.90
2018-07-19T18:13:52.875Z,2.97
2018-07-19T18:16:21.577Z,3.03
2018-07-19T18:18:50.376Z,2.90
2018-07-19T18:21:19.088Z,3.20
2018-07-19T18:23:47.704Z,2.90
2018-07-19T18:26:16.264Z,3.53
2018-07-19T18:28:44.895Z,3.00
2018-07-19T18:31:13.678Z,3.20
2018-07-19T18:33:42.425Z,3.37
2018-07-19T18:36:10.699Z,2.60
2018-07-19T18:38:39.306Z,2.90
2018-07-19T18:41:07.956Z,2.77
2018-07-19T18:43:36.522Z,3.30
2018-07-19T18:46:05.343Z,3.60
2018-07-19T18:48:34.631Z,3.20
2018-07-19T18:51:03.766Z,3.67
2018-07-19T18:53:32.389Z,3.03
2018-07-19T18:56:01.105Z,3.23
2018-07-19T18:58:29.790Z,3.27
2018-07-19T19:00:58.381Z,3.43
2018-07-19T19:03:27.208Z,3.47
2018-07-19T19:05:55.887Z,2.93
2018-07-19T19:08:24.515Z,3.10
2018-07-19T19:10:53.308Z,3.30
2018-07-19T19:13:21.862Z,3.43
2018-07-19T19:15:50.544Z,3.70
2018-07-19T19:18:19.214Z,3.60
2018-07-19T19:20:47.790Z,3.50
2018-07-19T19:23:16.502Z,3.90
2018-07-19T19:25:45.221Z,3.80
2018-07-19T19:28:13.822Z,3.97
2018-07-19T19:30:42.501Z,4.20
2018-07-19T19:33:11.475Z,3.80
2018-07-19T19:35:40.396Z,4.20
2018-07-19T19:38:09.519Z,4.20
2018-07-19T19:40:38.086Z,4.33
2018-07-19T19:43:07.106Z,4.30
2018-07-19T19:45:35.931Z,4.20
2018-07-19T19:48:04.550Z,4.23
2018-07-19T19:50:33.171Z,3.93
2018-07-19T19:53:02.242Z,3.70
2018-07-19T19:55:30.815Z,4.33
2018-07-19T19:57:59.470Z,3.60
2018-07-19T20:00:28.088Z,4.00
2018-07-19T20:02:57.029Z,4.23
2018-07-19T20:05:25.747Z,3.50
2018-07-19T20:07:54.394Z,4.77
2018-07-19T20:10:23.190Z,3.90
2018-07-19T20:12:51.736Z,4.47
2018-07-19T20:15:20.434Z,4.37
2018-07-19T20:17:49.213Z,4.00
2018-07-19T20:20:17.762Z,4.17
2018-07-19T20:22:46.477Z,4.10
2018-07-19T20:25:15.530Z,3.90
2018-07-19T20:27:44.294Z,4.33
2018-07-19T20:30:13.151Z,3.60
2018-07-19T20:32:41.858Z,3.73
2018-07-19T20:35:10.662Z,3.73
2018-07-19T20:37:39.419Z,3.83
2018-07-19T20:40:07.722Z,3.80
2018-07-19T20:42:36.530Z,3.80
2018-07-19T20:45:05.627Z,4.03
2018-07-19T20:47:34.407Z,3.60
2018-07-19T20:50:02.992Z,3.97
2018-07-19T20:52:31.594Z,3.43
2018-07-19T20:55:00.202Z,5.20
2018-07-19T20:57:28.877Z,4.13
2018-07-19T20:59:57.674Z,4.30
2018-07-19T21:02:26.557Z,5.90
2018-07-19T21:04:55.177Z,4.37
2018-07-19T21:07:23.730Z,4.13
2018-07-19T21:09:52.594Z,4.70
2018-07-19T21:12:21.125Z,4.00
2018-07-19T21:14:49.777Z,4.13
2018-07-19T21:17:18.538Z,3.97
2018-07-19T21:19:47.195Z,4.40
2018-07-19T21:22:15.823Z,4.47
2018-07-19T21:24:44.902Z,4.53
2018-07-19T21:27:13.786Z,4.00
2018-07-19T21:29:42.538Z,5.50
2018-07-19T21:32:11.386Z,5.30
2018-07-19T21:34:40.296Z,3.93
2018-07-19T21:37:09.050Z,4.83
2018-07-19T21:39:37.605Z,3.87
2018-07-19T21:42:06.487Z,4.57
2018-07-19T21:44:35.123Z,4.27
2018-07-19T21:47:03.771Z,4.53
2018-07-19T21:49:32.290Z,4.87
2018-07-19T21:52:00.837Z,5.97
2018-07-19T21:54:29.415Z,5.03
2018-07-19T21:56:57.972Z,4.90
2018-07-19T21:59:26.489Z,5.90
2018-07-19T22:01:55.074Z,5.60
2018-07-19T22:04:23.654Z,4.90
2018-07-19T22:06:52.358Z,4.93
2018-07-19T22:09:22.500Z,4.97
2018-07-19T22:11:51.894Z,4.53
2018-07-19T22:14:20.499Z,4.47
2018-07-19T22:16:49.113Z,5.40
2018-07-19T22:19:17.927Z,4.30
2018-07-19T22:21:46.280Z,4.80
2018-07-19T22:24:14.856Z,4.83
2018-07-19T22:26:43.389Z,5.40
2018-07-19T22:29:11.969Z,5.90
2018-07-19T22:31:40.569Z,4.60
2018-07-19T22:34:09.222Z,4.90
2018-07-19T22:36:37.849Z,4.80
2018-07-19T22:39:09.330Z,4.43
2018-07-19T22:41:37.890Z,5.10
2018-07-19T22:44:06.532Z,4.70
2018-07-19T22:46:35.401Z,4.87
2018-07-19T22:49:03.997Z,4.60
2018-07-19T22:51:32.622Z,5.47
2018-07-19T22:54:01.213Z,4.87
2018-07-19T22:56:29.958Z,5.37
2018-07-19T22:58:58.606Z,5.70
2018-07-19T23:01:27.333Z,4.93
2018-07-19T23:03:55.893Z,5.10
2018-07-19T23:06:24.550Z,5.00
2018-07-19T23:08:53.078Z,4.93
2018-07-19T23:11:22.113Z,5.63
2018-07-19T23:13:50.639Z,5.10
2018-07-19T23:16:19.488Z,4.80
2018-07-19T23:18:48.058Z,5.27
2018-07-19T23:21:16.791Z,5.40
2018-07-19T23:23:45.363Z,5.30
2018-07-19T23:26:13.914Z,5.40
2018-07-19T23:28:42.846Z,5.47
2018-07-19T23:31:11.450Z,5.03
2018-07-19T23:33:40.273Z,5.53
2018-07-19T23:36:16.461Z,5.40
2018-07-19T23:38:53.418Z,5.40
2018-07-19T23:41:34.262Z,5.27
2018-07-19T23:44:07.104Z,6.00
2018-07-19T23:46:39.983Z,5.23
2018-07-19T23:49:08.715Z,5.33
2018-07-19T23:51:38.360Z,5.93
2018-07-19T23:54:07.217Z,5.20
2018-07-19T23:56:36.382Z,5.40
2018-07-19T23:59:05.102Z,5.67
